Time;durP1;ratioP1;P1;durP2;ratioP2;P2;SDS_P1;SDS_P2;PMS_P1;PMS_P2;Temp;Humidity;BMP_temperature;BMP_pressure;BME280_temperature;BME280_humidity;BME280_pressure;Samples;Min_cycle;Max_cycle;Signal;HPM_P1;HPM_P2
2021/01/19 00:01:06;;;;;;;5.22;1.90;;;;;;;;;;5013592;28;20240;-75
2021/01/19 00:03:32;;;;;;;4.03;1.80;;;;;;;;;;5013505;28;20257;-74
2021/01/19 00:05:58;;;;;;;4.88;2.08;;;;;;;;;;5013369;28;20413;-76
2021/01/19 00:08:24;;;;;;;5.63;2.20;;;;;;;;;;5013114;28;20671;-75
2021/01/19 00:10:50;;;;;;;6.97;2.05;;;;;;;;;;5013451;28;20217;-75
2021/01/19 00:13:19;;;;;;;4.70;1.85;;;;;;;;;;5012224;28;20179;-75
2021/01/19 00:15:46;;;;;;;5.13;2.00;;;;;;;;;;5013325;28;20608;-74
2021/01/19 00:18:12;;;;;;;8.48;1.92;;;;;;;;;;5016880;28;20658;-75
2021/01/19 00:20:38;;;;;;;4.43;1.70;;;;;;;;;;5017357;28;20262;-74
2021/01/19 00:23:04;;;;;;;6.70;1.77;;;;;;;;;;5017319;28;20814;-74
2021/01/19 00:25:30;;;;;;;6.00;1.87;;;;;;;;;;5017328;28;20426;-75
2021/01/19 00:27:56;;;;;;;6.00;1.70;;;;;;;;;;5016610;28;20519;-74
2021/01/19 00:30:22;;;;;;;4.90;1.80;;;;;;;;;;5017235;28;20406;-75
2021/01/19 00:32:48;;;;;;;7.05;1.45;;;;;;;;;;5017227;28;20953;-74
2021/01/19 00:35:14;;;;;;;6.63;1.37;;;;;;;;;;5017099;28;20253;-76
2021/01/19 00:37:40;;;;;;;6.20;1.80;;;;;;;;;;5016533;28;20917;-75
2021/01/19 00:40:06;;;;;;;4.93;1.63;;;;;;;;;;5016804;28;20178;-75
2021/01/19 00:42:32;;;;;;;2.88;1.38;;;;;;;;;;5016881;28;20410;-74
2021/01/19 00:44:58;;;;;;;2.67;1.60;;;;;;;;;;5016828;28;20660;-73
2021/01/19 00:47:24;;;;;;;2.20;1.30;;;;;;;;;;5016455;28;20199;-74
2021/01/19 00:49:50;;;;;;;2.97;1.27;;;;;;;;;;5016681;28;20402;-76
2021/01/19 00:52:16;;;;;;;5.40;1.70;;;;;;;;;;5016768;28;20898;-73
2021/01/19 00:54:43;;;;;;;4.10;1.40;;;;;;;;;;5016780;28;20822;-74
2021/01/19 00:57:09;;;;;;;2.45;1.25;;;;;;;;;;5016368;28;20437;-74
2021/01/19 00:59:35;;;;;;;3.38;1.65;;;;;;;;;;5016552;28;20721;-75
2021/01/19 01:02:01;;;;;;;2.10;1.30;;;;;;;;;;5016563;28;20189;-76
2021/01/19 01:04:27;;;;;;;2.60;1.67;;;;;;;;;;5016417;28;20184;-75
2021/01/19 01:06:54;;;;;;;6.60;1.63;;;;;;;;;;5016086;28;20414;-75
2021/01/19 01:09:20;;;;;;;2.67;1.75;;;;;;;;;;5016421;28;20468;-75
2021/01/19 01:11:46;;;;;;;3.95;1.58;;;;;;;;;;5016423;28;20171;-75
2021/01/19 01:14:13;;;;;;;2.08;1.45;;;;;;;;;;5016130;28;20575;-73
2021/01/19 01:16:39;;;;;;;5.28;1.77;;;;;;;;;;5015707;28;20250;-74
2021/01/19 01:19:06;;;;;;;2.00;1.17;;;;;;;;;;5016231;28;20258;-75
2021/01/19 01:21:39;;;;;;;3.92;1.48;;;;;;;;;;5016158;28;20177;-76
2021/01/19 01:24:06;;;;;;;3.08;1.42;;;;;;;;;;5016062;28;20667;-74
2021/01/19 01:26:32;;;;;;;3.28;1.60;;;;;;;;;;5015799;28;20206;-75
2021/01/19 01:28:58;;;;;;;3.35;1.92;;;;;;;;;;5015427;28;20214;-76
2021/01/19 01:31:24;;;;;;;2.47;1.30;;;;;;;;;;5016045;28;20198;-73
2021/01/19 01:33:50;;;;;;;2.83;1.65;;;;;;;;;;5016238;28;20627;-74
2021/01/19 01:36:16;;;;;;;7.63;1.42;;;;;;;;;;5016053;28;20189;-74
2021/01/19 01:38:42;;;;;;;2.60;1.58;;;;;;;;;;5015627;28;20222;-73
2021/01/19 01:41:15;;;;;;;3.58;2.00;;;;;;;;;;5015777;28;20586;-75
2021/01/19 01:43:41;;;;;;;2.30;1.70;;;;;;;;;;5015923;28;20186;-74
2021/01/19 01:46:09;;;;;;;3.72;1.67;;;;;;;;;;5015916;28;20190;-74
2021/01/19 01:48:35;;;;;;;4.95;1.83;;;;;;;;;;5015156;28;20234;-74
2021/01/19 01:51:01;;;;;;;5.85;1.60;;;;;;;;;;5014401;28;20183;-74
2021/01/19 01:53:27;;;;;;;3.20;1.90;;;;;;;;;;5015678;28;20250;-75
2021/01/19 01:55:53;;;;;;;4.10;1.40;;;;;;;;;;5015567;28;20216;-75
2021/01/19 01:58:19;;;;;;;3.45;1.55;;;;;;;;;;5015263;28;20515;-74
2021/01/19 02:00:48;;;;;;;2.60;1.60;;;;;;;;;;5015513;28;20247;-73
2021/01/19 02:03:14;;;;;;;2.88;2.25;;;;;;;;;;5015493;28;20185;-74
2021/01/19 02:05:40;;;;;;;5.30;2.23;;;;;;;;;;5015390;28;20182;-73
2021/01/19 02:08:16;;;;;;;2.37;1.47;;;;;;;;;;5015004;28;20469;-74
2021/01/19 02:11:02;;;;;;;6.22;1.77;;;;;;;;;;5015251;28;20409;-76
2021/01/19 02:13:46;;;;;;;5.10;1.50;;;;;;;;;;5001854;28;20186;-76
2021/01/19 02:16:15;;;;;;;4.30;2.05;;;;;;;;;;5015244;28;20171;-75
2021/01/19 02:19:03;;;;;;;3.83;2.00;;;;;;;;;;5014591;28;20199;-74
2021/01/19 02:21:38;;;;;;;3.97;1.95;;;;;;;;;;5015276;28;20179;-76
2021/01/19 02:24:10;;;;;;;3.45;1.67;;;;;;;;;;5015207;28;20669;-74
2021/01/19 02:26:42;;;;;;;3.80;1.75;;;;;;;;;;5014992;28;20216;-75
2021/01/19 02:29:24;;;;;;;3.13;1.40;;;;;;;;;;5014688;28;20234;-74
2021/01/19 02:31:59;;;;;;;1.98;1.55;;;;;;;;;;5015131;28;20170;-74
2021/01/19 02:34:35;;;;;;;4.60;2.40;;;;;;;;;;5015047;28;20170;-74
2021/01/19 02:37:01;;;;;;;4.38;2.15;;;;;;;;;;5014408;28;20191;-76
2021/01/19 02:39:47;;;;;;;5.30;2.33;;;;;;;;;;5013282;28;20179;-74
2021/01/19 02:42:15;;;;;;;4.20;1.80;;;;;;;;;;5014920;28;20937;-75
2021/01/19 02:44:41;;;;;;;7.63;2.50;;;;;;;;;;5014679;28;20175;-73
2021/01/19 02:47:07;;;;;;;6.72;1.90;;;;;;;;;;5014080;28;20198;-74
2021/01/19 02:49:33;;;;;;;6.72;2.03;;;;;;;;;;5014768;28;20297;-76
2021/01/19 02:52:00;;;;;;;5.23;2.53;;;;;;;;;;5014762;28;20221;-74
2021/01/19 02:54:26;;;;;;;9.75;2.55;;;;;;;;;;5014640;28;20402;-76
2021/01/19 02:56:56;;;;;;;4.72;2.60;;;;;;;;;;5012845;28;20185;-73
2021/01/19 02:59:38;;;;;;;4.50;1.85;;;;;;;;;;5014376;28;20218;-75
2021/01/19 03:02:10;;;;;;;4.53;1.98;;;;;;;;;;5014586;28;20175;-75
2021/01/19 03:04:36;;;;;;;4.78;1.65;;;;;;;;;;5014443;28;20253;-76
2021/01/19 03:07:03;;;;;;;7.68;2.53;;;;;;;;;;5013746;28;20673;-74
2021/01/19 03:09:31;;;;;;;5.13;2.30;;;;;;;;;;5014036;28;20293;-75
2021/01/19 03:11:59;;;;;;;3.75;2.88;;;;;;;;;;5014124;28;20175;-75
2021/01/19 03:14:25;;;;;;;6.47;2.10;;;;;;;;;;5014212;28;20181;-75
2021/01/19 03:16:51;;;;;;;6.10;2.33;;;;;;;;;;5013658;28;20673;-76
2021/01/19 03:19:18;;;;;;;8.18;2.10;;;;;;;;;;5012663;28;20184;-74
2021/01/19 03:21:44;;;;;;;4.53;2.15;;;;;;;;;;5013968;28;20685;-76
2021/01/19 03:24:11;;;;;;;6.78;2.10;;;;;;;;;;5013792;28;20240;-76
2021/01/19 03:26:37;;;;;;;5.57;2.63;;;;;;;;;;5013590;28;20188;-77
2021/01/19 03:29:04;;;;;;;4.38;2.22;;;;;;;;;;5013682;28;20253;-75
2021/01/19 03:31:30;;;;;;;3.30;2.03;;;;;;;;;;5013679;28;20588;-76
2021/01/19 03:33:56;;;;;;;6.72;2.53;;;;;;;;;;5013760;28;20179;-74
2021/01/19 03:36:22;;;;;;;3.40;1.40;;;;;;;;;;5013821;28;20190;-75
2021/01/19 03:38:49;;;;;;;8.48;2.45;;;;;;;;;;5013742;28;20516;-73
2021/01/19 03:41:14;;;;;;;4.32;1.98;;;;;;;;;;5015745;28;20182;-74
2021/01/19 03:43:40;;;;;;;4.60;2.20;;;;;;;;;;5013742;28;20550;-74
2021/01/19 03:46:06;;;;;;;8.50;2.23;;;;;;;;;;5012522;28;20425;-75
2021/01/19 03:48:32;;;;;;;4.77;1.90;;;;;;;;;;5013411;28;20457;-75
2021/01/19 03:50:58;;;;;;;5.23;2.30;;;;;;;;;;5013786;28;20421;-76
2021/01/19 03:53:24;;;;;;;6.85;2.10;;;;;;;;;;5013527;28;20403;-76
2021/01/19 03:55:50;;;;;;;7.53;2.17;;;;;;;;;;5013584;28;20566;-76
2021/01/19 03:58:16;;;;;;;7.33;2.87;;;;;;;;;;5013120;28;20472;-73
2021/01/19 04:00:42;;;;;;;14.00;2.50;;;;;;;;;;5013531;28;20409;-76
2021/01/19 04:03:08;;;;;;;6.40;2.70;;;;;;;;;;5013677;28;20402;-74
2021/01/19 04:05:34;;;;;;;7.17;2.33;;;;;;;;;;5013556;28;20871;-75
2021/01/19 04:08:00;;;;;;;7.13;2.90;;;;;;;;;;5013080;28;20824;-75
2021/01/19 04:10:26;;;;;;;6.30;2.28;;;;;;;;;;5013424;28;20413;-74
2021/01/19 04:12:52;;;;;;;8.15;2.33;;;;;;;;;;5013501;28;20600;-75
2021/01/19 04:15:18;;;;;;;6.20;2.50;;;;;;;;;;5013557;28;20202;-74
2021/01/19 04:17:44;;;;;;;7.10;2.05;;;;;;;;;;5012874;28;20418;-76
2021/01/19 04:20:10;;;;;;;8.10;2.73;;;;;;;;;;5013304;28;20765;-75
2021/01/19 04:22:36;;;;;;;8.77;2.53;;;;;;;;;;5013264;28;20489;-76
2021/01/19 04:25:04;;;;;;;8.50;3.25;;;;;;;;;;5013223;28;20245;-75
2021/01/19 04:27:30;;;;;;;9.15;2.17;;;;;;;;;;5012900;28;20229;-74
2021/01/19 04:29:56;;;;;;;5.93;2.03;;;;;;;;;;5012967;28;20202;-76
2021/01/19 04:32:22;;;;;;;6.53;2.50;;;;;;;;;;5013227;28;20410;-76
2021/01/19 04:34:48;;;;;;;5.55;1.70;;;;;;;;;;5013151;28;20199;-75
2021/01/19 04:37:14;;;;;;;8.60;2.97;;;;;;;;;;5012906;28;20198;-74
2021/01/19 04:39:40;;;;;;;4.57;2.50;;;;;;;;;;5013245;28;20883;-76
2021/01/19 04:42:06;;;;;;;5.30;2.03;;;;;;;;;;5012994;28;20237;-76
2021/01/19 04:44:32;;;;;;;5.20;2.67;;;;;;;;;;5013205;28;20410;-75
2021/01/19 04:46:58;;;;;;;5.22;2.10;;;;;;;;;;5012646;28;20420;-75
2021/01/19 04:49:25;;;;;;;6.67;2.77;;;;;;;;;;5011698;28;20214;-76
2021/01/19 04:51:51;;;;;;;6.03;1.80;;;;;;;;;;5012941;28;20420;-77
2021/01/19 04:54:18;;;;;;;5.30;2.17;;;;;;;;;;5011925;28;20840;-75
2021/01/19 04:56:56;;;;;;;3.10;1.92;;;;;;;;;;5012960;28;20532;-75
2021/01/19 04:59:24;;;;;;;3.88;1.80;;;;;;;;;;5012983;28;20627;-73
2021/01/19 05:01:56;;;;;;;5.90;2.30;;;;;;;;;;5013148;28;20584;-77
2021/01/19 05:04:30;;;;;;;11.80;2.33;;;;;;;;;;5016586;28;20178;-75
2021/01/19 05:07:14;;;;;;;3.55;1.70;;;;;;;;;;5016160;28;20176;-76
2021/01/19 05:09:50;;;;;;;6.47;1.83;;;;;;;;;;5016355;28;20222;-76
2021/01/19 05:12:19;;;;;;;5.95;2.20;;;;;;;;;;5016277;28;20531;-75
2021/01/19 05:14:46;;;;;;;2.63;2.08;;;;;;;;;;5016402;28;20222;-74
2021/01/19 05:17:13;;;;;;;8.82;3.15;;;;;;;;;;5014704;28;20600;-75
2021/01/19 05:19:43;;;;;;;9.23;1.70;;;;;;;;;;5016337;28;20224;-73
2021/01/19 05:22:16;;;;;;;7.57;2.17;;;;;;;;;;5016217;28;20175;-76
2021/01/19 05:24:45;;;;;;;9.32;2.00;;;;;;;;;;5016061;28;20179;-75
2021/01/19 05:27:13;;;;;;;3.60;1.65;;;;;;;;;;5015832;28;20610;-75
2021/01/19 05:29:39;;;;;;;4.07;2.20;;;;;;;;;;5016077;28;20555;-74
2021/01/19 05:32:05;;;;;;;9.65;1.95;;;;;;;;;;5014638;28;20182;-76
2021/01/19 05:34:35;;;;;;;7.30;2.08;;;;;;;;;;5015862;28;20174;-76
2021/01/19 05:37:01;;;;;;;4.35;1.40;;;;;;;;;;5015580;28;20225;-77
2021/01/19 05:39:27;;;;;;;2.70;1.57;;;;;;;;;;5015954;28;20175;-75
2021/01/19 05:41:54;;;;;;;7.25;1.83;;;;;;;;;;5015890;28;20422;-75
2021/01/19 05:44:23;;;;;;;4.47;1.40;;;;;;;;;;5015833;28;20179;-73
2021/01/19 05:46:53;;;;;;;2.70;1.10;;;;;;;;;;5015564;28;20233;-74
2021/01/19 05:49:20;;;;;;;2.47;1.50;;;;;;;;;;5014390;28;20205;-75
2021/01/19 05:51:49;;;;;;;3.75;1.60;;;;;;;;;;5015926;28;20270;-76
2021/01/19 05:54:30;;;;;;;2.70;0.90;;;;;;;;;;5015748;28;20210;-74
2021/01/19 05:57:04;;;;;;;2.35;1.38;;;;;;;;;;5015498;28;20171;-74
2021/01/19 05:59:32;;;;;;;8.23;1.10;;;;;;;;;;5015545;28;20199;-75
2021/01/19 06:02:02;;;;;;;5.82;1.30;;;;;;;;;;5015411;28;20182;-75
2021/01/19 06:04:32;;;;;;;2.70;1.27;;;;;;;;;;5015420;28;20182;-75
2021/01/19 06:06:59;;;;;;;2.03;1.15;;;;;;;;;;5014977;28;20257;-75
2021/01/19 06:09:25;;;;;;;2.45;1.05;;;;;;;;;;5015413;28;20198;-77
2021/01/19 06:11:51;;;;;;;2.55;1.00;;;;;;;;;;5015333;28;20217;-76
2021/01/19 06:14:24;;;;;;;2.15;0.90;;;;;;;;;;5014164;28;20174;-76
2021/01/19 06:16:50;;;;;;;1.52;1.00;;;;;;;;;;5014746;28;20179;-76
2021/01/19 06:19:29;;;;;;;1.77;1.20;;;;;;;;;;5015306;28;20274;-74
2021/01/19 06:21:58;;;;;;;3.65;1.00;;;;;;;;;;5015008;28;20170;-75
2021/01/19 06:24:34;;;;;;;2.13;1.20;;;;;;;;;;5014941;28;20177;-75
2021/01/19 06:27:00;;;;;;;3.17;1.25;;;;;;;;;;5014401;28;20204;-73
2021/01/19 06:29:28;;;;;;;1.30;0.90;;;;;;;;;;5014931;28;20577;-76
2021/01/19 06:31:55;;;;;;;2.50;1.58;;;;;;;;;;5014833;28;20170;-75
2021/01/19 06:34:25;;;;;;;1.10;0.80;;;;;;;;;;5014729;28;20206;-74
2021/01/19 06:36:51;;;;;;;2.47;1.20;;;;;;;;;;5014120;28;20176;-74
2021/01/19 06:39:27;;;;;;;3.10;1.20;;;;;;;;;;5014731;28;20174;-75
2021/01/19 06:41:58;;;;;;;1.65;0.70;;;;;;;;;;5014908;28;20193;-76
2021/01/19 06:44:26;;;;;;;1.33;0.77;;;;;;;;;;5014718;28;20183;-76
2021/01/19 06:46:54;;;;;;;1.00;0.90;;;;;;;;;;5014139;28;20701;-76
2021/01/19 06:49:21;;;;;;;1.45;1.00;;;;;;;;;;5014497;28;20207;-73
2021/01/19 06:51:53;;;;;;;1.30;0.88;;;;;;;;;;5014599;28;20197;-74
2021/01/19 06:54:19;;;;;;;0.95;0.70;;;;;;;;;;5014370;28;20183;-75
2021/01/19 06:57:00;;;;;;;2.28;0.80;;;;;;;;;;5014136;28;20183;-75
2021/01/19 06:59:33;;;;;;;1.75;0.93;;;;;;;;;;5014709;28;20610;-75
2021/01/19 07:02:02;;;;;;;1.00;0.90;;;;;;;;;;5014948;28;20195;-75
2021/01/19 07:04:32;;;;;;;2.20;0.80;;;;;;;;;;5014493;28;20225;-76
2021/01/19 07:07:04;;;;;;;0.95;0.80;;;;;;;;;;5014011;28;20171;-75
2021/01/19 07:09:49;;;;;;;2.38;0.90;;;;;;;;;;5014322;28;20253;-77
2021/01/19 07:12:20;;;;;;;0.80;0.80;;;;;;;;;;5014254;28;20175;-76
2021/01/19 07:15:04;;;;;;;2.17;0.85;;;;;;;;;;5014384;28;20187;-76
2021/01/19 07:17:43;;;;;;;3.60;0.93;;;;;;;;;;5013609;28;20237;-76
2021/01/19 07:20:13;;;;;;;2.05;0.70;;;;;;;;;;5014229;28;20213;-73
2021/01/19 07:22:39;;;;;;;5.85;2.95;;;;;;;;;;5013998;28;20221;-76
2021/01/19 07:25:05;;;;;;;1.60;1.07;;;;;;;;;;5013705;28;20170;-75
2021/01/19 07:27:32;;;;;;;2.47;1.15;;;;;;;;;;5013515;28;20425;-75
2021/01/19 07:29:58;;;;;;;1.35;0.80;;;;;;;;;;5013799;28;20570;-74
2021/01/19 07:32:25;;;;;;;1.80;0.95;;;;;;;;;;5013878;28;20178;-76
2021/01/19 07:34:51;;;;;;;2.28;1.10;;;;;;;;;;5013734;28;20258;-76
2021/01/19 07:37:28;;;;;;;1.50;0.90;;;;;;;;;;5013349;28;20199;-74
2021/01/19 07:39:54;;;;;;;3.55;1.13;;;;;;;;;;5013733;28;20175;-76
2021/01/19 07:42:21;;;;;;;3.03;1.07;;;;;;;;;;5013681;28;20530;-75
2021/01/19 07:45:01;;;;;;;3.53;0.93;;;;;;;;;;5013624;28;20406;-77
2021/01/19 07:47:34;;;;;;;2.28;0.90;;;;;;;;;;5013070;28;20190;-75
2021/01/19 07:50:01;;;;;;;2.50;0.80;;;;;;;;;;5013858;28;20183;-76
2021/01/19 07:52:35;;;;;;;2.15;1.27;;;;;;;;;;5013525;28;20252;-76
2021/01/19 07:55:11;;;;;;;1.08;0.82;;;;;;;;;;5013932;28;20575;-74
2021/01/19 07:57:37;;;;;;;3.17;0.90;;;;;;;;;;5012995;28;20214;-75
2021/01/19 08:00:04;;;;;;;2.95;1.13;;;;;;;;;;5013600;28;20230;-77
2021/01/19 08:02:30;;;;;;;3.05;0.90;;;;;;;;;;5013429;28;20179;-77
2021/01/19 08:05:05;;;;;;;1.13;0.90;;;;;;;;;;5013426;28;20254;-74
2021/01/19 08:07:41;;;;;;;1.60;0.73;;;;;;;;;;5013041;28;20198;-74
2021/01/19 08:10:33;;;;;;;2.22;1.10;;;;;;;;;;5013377;28;20197;-75
2021/01/19 08:13:02;;;;;;;1.58;1.05;;;;;;;;;;5008624;28;20205;-74
2021/01/19 08:15:28;;;;;;;1.63;0.98;;;;;;;;;;5013563;28;20181;-74
2021/01/19 08:17:58;;;;;;;3.60;1.10;;;;;;;;;;5012862;28;20190;-73
2021/01/19 08:20:25;;;;;;;1.13;0.82;;;;;;;;;;5012960;28;20815;-74
2021/01/19 08:22:51;;;;;;;1.90;1.00;;;;;;;;;;5012785;28;20170;-75
2021/01/19 08:25:24;;;;;;;2.20;1.10;;;;;;;;;;5013079;28;20204;-75
2021/01/19 08:27:50;;;;;;;1.67;0.80;;;;;;;;;;5012550;28;20201;-74
2021/01/19 08:30:27;;;;;;;5.03;1.02;;;;;;;;;;5013108;28;20206;-74
2021/01/19 08:32:54;;;;;;;1.75;1.02;;;;;;;;;;5013007;28;20185;-75
2021/01/19 08:35:20;;;;;;;1.42;1.00;;;;;;;;;;5013286;28;20185;-75
2021/01/19 08:37:49;;;;;;;1.67;1.20;;;;;;;;;;5014158;28;20227;-76
2021/01/19 08:40:35;;;;;;;2.85;1.10;;;;;;;;;;5017086;28;20174;-75
2021/01/19 08:43:04;;;;;;;1.13;0.70;;;;;;;;;;5016630;28;20174;-75
2021/01/19 08:45:32;;;;;;;1.13;1.02;;;;;;;;;;5016798;28;20306;-75
2021/01/19 08:47:59;;;;;;;4.53;0.90;;;;;;;;;;5016261;28;20202;-75
2021/01/19 08:50:26;;;;;;;1.60;0.98;;;;;;;;;;5015832;28;20636;-73
2021/01/19 08:52:52;;;;;;;1.10;0.70;;;;;;;;;;5016928;28;20175;-76
2021/01/19 08:55:19;;;;;;;0.88;0.68;;;;;;;;;;5017041;28;20174;-75
2021/01/19 08:57:54;;;;;;;2.35;0.90;;;;;;;;;;5016516;28;20210;-75
2021/01/19 09:00:27;;;;;;;1.27;0.95;;;;;;;;;;5016598;28;20256;-76
2021/01/19 09:02:53;;;;;;;0.95;0.80;;;;;;;;;;5017050;28;20175;-74
2021/01/19 09:05:23;;;;;;;1.45;0.90;;;;;;;;;;5016616;28;20171;-76
2021/01/19 09:07:49;;;;;;;2.97;0.82;;;;;;;;;;5016273;28;20199;-76
2021/01/19 09:10:21;;;;;;;0.80;0.63;;;;;;;;;;5016296;28;20543;-75
2021/01/19 09:12:48;;;;;;;1.13;0.82;;;;;;;;;;5007200;28;20415;-76
2021/01/19 09:15:15;;;;;;;0.98;0.65;;;;;;;;;;4996778;28;20170;-74
2021/01/19 09:17:41;;;;;;;1.20;0.80;;;;;;;;;;4996324;28;20192;-76
2021/01/19 09:20:09;;;;;;;2.75;0.73;;;;;;;;;;4996573;28;20186;-76
2021/01/19 09:22:35;;;;;;;0.98;0.60;;;;;;;;;;4996629;28;20179;-74
2021/01/19 09:25:01;;;;;;;0.93;0.80;;;;;;;;;;4996643;28;20196;-75
2021/01/19 09:27:27;;;;;;;0.60;0.60;;;;;;;;;;4996173;28;20234;-74
2021/01/19 09:30:04;;;;;;;1.63;0.70;;;;;;;;;;4994981;28;20473;-76
2021/01/19 09:32:30;;;;;;;1.55;0.60;;;;;;;;;;4996346;28;20174;-75
2021/01/19 09:34:58;;;;;;;0.80;0.57;;;;;;;;;;4996427;28;20178;-75
2021/01/19 09:37:24;;;;;;;0.63;0.63;;;;;;;;;;4995960;28;20552;-75
2021/01/19 09:39:50;;;;;;;1.13;0.63;;;;;;;;;;4996063;28;20180;-75
2021/01/19 09:42:19;;;;;;;1.70;0.70;;;;;;;;;;4995915;28;20537;-74
2021/01/19 09:44:45;;;;;;;0.95;0.82;;;;;;;;;;4996090;28;20407;-75
2021/01/19 09:47:13;;;;;;;2.85;0.77;;;;;;;;;;4996023;28;20314;-75
2021/01/19 09:49:40;;;;;;;1.17;0.75;;;;;;;;;;4995912;28;20209;-75
2021/01/19 09:52:09;;;;;;;0.90;0.70;;;;;;;;;;4995902;28;20179;-76
2021/01/19 09:54:35;;;;;;;0.70;0.70;;;;;;;;;;4995994;28;20230;-75
2021/01/19 09:57:01;;;;;;;3.00;0.60;;;;;;;;;;4995786;28;20223;-76
2021/01/19 09:59:28;;;;;;;1.52;0.70;;;;;;;;;;4995868;28;20222;-76
2021/01/19 10:01:55;;;;;;;2.90;1.13;;;;;;;;;;4995964;28;20215;-75
2021/01/19 10:04:21;;;;;;;1.98;0.65;;;;;;;;;;4995837;28;20584;-76
2021/01/19 10:06:47;;;;;;;0.70;0.60;;;;;;;;;;4995405;28;20182;-74
2021/01/19 10:09:25;;;;;;;0.70;0.60;;;;;;;;;;4995709;28;20200;-75
2021/01/19 10:12:02;;;;;;;0.65;0.50;;;;;;;;;;4995633;28;20171;-76
2021/01/19 10:14:35;;;;;;;1.13;0.80;;;;;;;;;;5015041;28;20631;-76
2021/01/19 10:17:01;;;;;;;0.73;0.73;;;;;;;;;;5014707;28;20223;-75
2021/01/19 10:19:28;;;;;;;0.60;0.60;;;;;;;;;;5015324;28;20603;-75
2021/01/19 10:21:56;;;;;;;0.70;0.50;;;;;;;;;;5013674;28;20628;-75
2021/01/19 10:24:22;;;;;;;0.73;0.50;;;;;;;;;;5014867;28;20178;-75
2021/01/19 10:26:58;;;;;;;1.70;0.50;;;;;;;;;;5014579;28;20188;-74
2021/01/19 10:29:24;;;;;;;0.80;0.60;;;;;;;;;;5014884;28;20212;-75
2021/01/19 10:31:54;;;;;;;1.67;0.63;;;;;;;;;;5014767;28;20225;-75
2021/01/19 10:34:21;;;;;;;1.90;0.88;;;;;;;;;;5014766;28;20405;-75
2021/01/19 10:36:54;;;;;;;0.77;0.70;;;;;;;;;;5014047;28;20182;-75
2021/01/19 10:39:21;;;;;;;0.60;0.50;;;;;;;;;;5014685;28;20177;-75
2021/01/19 10:41:47;;;;;;;0.70;0.60;;;;;;;;;;5014558;28;20187;-75
2021/01/19 10:44:13;;;;;;;0.65;0.50;;;;;;;;;;5014523;28;20176;-75
2021/01/19 10:46:40;;;;;;;0.68;0.60;;;;;;;;;;5014163;28;20267;-74
2021/01/19 10:49:10;;;;;;;0.73;0.55;;;;;;;;;;5014329;28;20194;-73
2021/01/19 10:51:37;;;;;;;1.48;0.65;;;;;;;;;;5014757;28;20180;-75
2021/01/19 10:54:29;;;;;;;1.75;0.55;;;;;;;;;;5014617;28;20713;-75
2021/01/19 10:57:05;;;;;;;0.80;0.70;;;;;;;;;;5011139;28;20196;-76
2021/01/19 10:59:31;;;;;;;2.10;0.70;;;;;;;;;;5014025;28;20198;-75
2021/01/19 11:01:57;;;;;;;0.98;0.60;;;;;;;;;;5014042;28;20185;-75
2021/01/19 11:04:23;;;;;;;0.85;0.65;;;;;;;;;;5014287;28;20269;-74
2021/01/19 11:06:49;;;;;;;1.93;0.63;;;;;;;;;;5013839;28;20255;-76
2021/01/19 11:09:15;;;;;;;0.60;0.50;;;;;;;;;;5014440;28;20465;-74
2021/01/19 11:11:41;;;;;;;0.50;0.50;;;;;;;;;;5014385;28;20402;-75
2021/01/19 11:14:08;;;;;;;1.27;0.70;;;;;;;;;;5014093;28;20209;-75
2021/01/19 11:16:35;;;;;;;1.10;0.70;;;;;;;;;;5014076;28;20253;-74
2021/01/19 11:19:02;;;;;;;0.80;0.63;;;;;;;;;;5013673;28;20219;-74
2021/01/19 11:21:30;;;;;;;0.80;0.60;;;;;;;;;;5014117;28;20241;-75
2021/01/19 11:23:56;;;;;;;0.60;0.50;;;;;;;;;;5014090;28;20175;-75
2021/01/19 11:26:23;;;;;;;0.70;0.60;;;;;;;;;;5013986;28;20184;-75
2021/01/19 11:28:48;;;;;;;0.73;0.60;;;7.70;99.90;;;;;;5013389;28;20261;-74
2021/01/19 11:31:25;;;;;;;0.67;0.57;;;7.70;99.90;;;;;;5013765;28;20168;-75
2021/01/19 11:33:51;;;;;;;1.23;0.90;;;7.60;99.90;;;;;;5013923;28;20166;-75
2021/01/19 11:36:18;;;;;;;0.70;0.50;;;7.60;99.90;;;;;;5013805;28;20660;-73
2021/01/19 11:38:43;;;;;;;0.75;0.75;;;7.60;99.90;;;;;;5013301;28;20195;-74
2021/01/19 11:41:09;;;;;;;1.23;1.00;;;7.60;99.90;;;;;;5012301;28;20189;-74
2021/01/19 11:43:35;;;;;;;0.90;0.50;;;7.60;99.90;;;;;;5013581;28;20179;-75
2021/01/19 11:46:00;;;;;;;1.57;0.70;;;7.60;99.90;;;;;;5013606;28;20591;-73
2021/01/19 11:48:26;;;;;;;0.60;0.50;;;7.70;99.90;;;;;;5013254;28;20760;-73
2021/01/19 11:50:52;;;;;;;1.57;0.80;;;;;;;;;;5013461;28;20168;-74
2021/01/19 11:53:18;;;;;;;0.70;0.60;;;7.60;99.90;;;;;;5013151;28;20663;-75
2021/01/19 11:55:43;;;;;;;0.97;0.67;;;7.50;99.90;;;;;;5006745;28;20194;-73
2021/01/19 11:58:10;;;;;;;0.60;0.60;;;7.60;99.90;;;;;;5010272;28;20245;-72
2021/01/19 12:00:36;;;;;;;2.38;0.60;;;7.70;99.90;;;;;;5011963;28;20187;-74
2021/01/19 12:03:01;;;;;;;0.80;0.60;;;7.70;99.90;;;;;;5010698;28;20268;-73
2021/01/19 12:05:27;;;;;;;1.03;0.63;;;7.80;99.90;;;;;;5011942;28;20195;-72
2021/01/19 12:07:53;;;;;;;1.73;1.00;;;7.80;99.90;;;;;;5009863;28;20543;-76
2021/01/19 12:10:18;;;;;;;0.80;0.73;;;7.70;99.90;;;;;;5011144;28;20193;-73
2021/01/19 12:12:44;;;;;;;1.10;0.70;;;7.80;99.90;;;;;;5013224;28;20190;-73
2021/01/19 12:15:10;;;;;;;1.00;0.63;;;7.80;99.90;;;;;;5015620;28;20665;-73
2021/01/19 12:17:35;;;;;;;0.70;0.70;;;7.80;99.90;;;;;;5014594;28;20279;-74
2021/01/19 12:20:01;;;;;;;0.80;0.53;;;7.80;99.90;;;;;;5015476;28;20696;-73
2021/01/19 12:22:26;;;;;;;1.00;0.80;;;7.80;99.90;;;;;;5014497;28;20245;-74
2021/01/19 12:24:52;;;;;;;0.60;0.50;;;7.80;99.90;;;;;;5014443;28;20667;-74
2021/01/19 12:27:17;;;;;;;0.73;0.60;;;7.80;99.90;;;;;;5014842;28;20200;-72
2021/01/19 12:29:43;;;;;;;0.90;0.60;;;7.80;99.90;;;;;;5014693;28;20233;-73
2021/01/19 12:32:10;;;;;;;0.63;0.60;;;7.80;99.90;;;;;;5014691;28;20234;-74
2021/01/19 12:34:36;;;;;;;0.70;0.70;;;7.80;99.90;;;;;;5014781;28;20240;-73
2021/01/19 12:37:02;;;;;;;0.90;0.60;;;7.80;99.90;;;;;;5015056;28;20663;-75
2021/01/19 12:39:28;;;;;;;0.77;0.53;;;7.80;99.90;;;;;;5013684;28;20468;-74
2021/01/19 12:41:55;;;;;;;1.23;0.60;;;7.90;99.90;;;;;;5015268;28;20266;-73
2021/01/19 12:44:21;;;;;;;1.05;0.73;;;7.80;99.90;;;;;;5014201;28;20512;-73
2021/01/19 12:46:46;;;;;;;1.40;0.70;;;7.90;99.90;;;;;;5012767;28;20282;-73
2021/01/19 12:49:12;;;;;;;0.87;0.60;;;7.90;99.90;;;;;;5013246;28;20210;-74
2021/01/19 12:51:37;;;;;;;0.70;0.60;;;7.90;99.90;;;;;;5015166;28;20266;-74
2021/01/19 12:54:03;;;;;;;1.70;0.77;;;7.90;99.90;;;;;;5013397;28;20181;-74
2021/01/19 12:56:29;;;;;;;0.70;0.60;;;7.90;99.90;;;;;;5013516;28;20212;-74
2021/01/19 12:58:55;;;;;;;1.20;0.70;;;7.90;99.90;;;;;;5013663;28;20457;-73
2021/01/19 13:01:20;;;;;;;0.70;0.60;;;7.90;99.90;;;;;;5013965;28;20278;-73
2021/01/19 13:03:46;;;;;;;0.90;0.70;;;7.90;99.90;;;;;;5014665;28;20210;-73
2021/01/19 13:06:12;;;;;;;0.90;0.70;;;7.90;99.90;;;;;;5014681;28;20193;-72
2021/01/19 13:08:39;;;;;;;0.80;0.70;;;7.90;99.90;;;;;;5014013;28;20202;-73
2021/01/19 13:11:05;;;;;;;0.70;0.60;;;8.00;99.90;;;;;;5014775;28;20457;-73
2021/01/19 13:13:31;;;;;;;1.55;1.00;;;8.10;99.90;;;;;;5014339;28;20197;-73
2021/01/19 13:15:57;;;;;;;0.80;0.70;;;8.10;99.90;;;;;;5013054;28;20194;-74
2021/01/19 13:18:22;;;;;;;1.53;1.00;;;8.10;99.90;;;;;;5014204;28;20287;-74
2021/01/19 13:20:48;;;;;;;1.70;0.67;;;8.20;99.90;;;;;;5013830;28;20190;-75
2021/01/19 13:23:16;;;;;;;0.77;0.60;;;8.30;99.90;;;;;;5013348;28;20668;-73
2021/01/19 13:25:42;;;;;;;0.77;0.60;;;8.20;99.90;;;;;;5013662;28;20185;-74
2021/01/19 13:28:07;;;;;;;0.60;0.50;;;8.20;99.90;;;;;;5014384;28;20210;-72
2021/01/19 13:30:33;;;;;;;1.57;0.60;;;8.20;99.90;;;;;;5013572;28;20560;-74
2021/01/19 13:32:58;;;;;;;1.00;0.80;;;8.20;99.90;;;;;;5014766;28;20646;-74
2021/01/19 13:35:24;;;;;;;1.17;1.07;;;8.30;99.90;;;;;;5013987;28;20192;-75
2021/01/19 13:37:50;;;;;;;0.90;0.80;;;8.30;99.90;;;;;;5013291;28;20194;-75
2021/01/19 13:40:15;;;;;;;1.00;0.90;;;8.30;99.90;;;;;;5014195;28;20208;-74
2021/01/19 13:42:42;;;;;;;0.93;0.87;;;8.40;99.90;;;;;;5014509;28;20182;-74
2021/01/19 13:45:09;;;;;;;1.65;0.85;;;8.40;99.90;;;;;;5013796;28;20433;-74
2021/01/19 13:47:35;;;;;;;2.20;0.90;;;8.40;99.90;;;;;;5013791;28;20201;-72
2021/01/19 13:50:01;;;;;;;0.70;0.60;;;8.40;99.90;;;;;;5013744;28;20209;-75
2021/01/19 13:52:26;;;;;;;1.10;1.00;;;8.50;99.90;;;;;;5014438;28;20429;-73
2021/01/19 13:54:52;;;;;;;2.93;0.93;;;8.50;99.90;;;;;;5013098;28;20204;-73
2021/01/19 13:57:17;;;;;;;0.90;0.80;;;8.50;99.90;;;;;;5013134;28;20199;-74
2021/01/19 13:59:43;;;;;;;2.30;0.80;;;8.50;99.90;;;;;;5013066;28;20199;-73
2021/01/19 14:02:09;;;;;;;0.80;0.60;;;8.50;99.90;;;;;;5013404;28;20190;-71
2021/01/19 14:04:34;;;;;;;0.80;0.70;;;8.50;99.90;;;;;;5013866;28;20427;-75
2021/01/19 14:07:00;;;;;;;1.17;1.00;;;8.40;99.90;;;;;;5013511;28;20202;-72
2021/01/19 14:09:26;;;;;;;0.90;0.73;;;8.40;99.90;;;;;;5012954;28;20260;-74
2021/01/19 14:11:51;;;;;;;0.80;0.80;;;8.40;99.90;;;;;;5013722;28;20185;-74
2021/01/19 14:14:20;;;;;;;0.70;0.60;;;8.40;99.90;;;;;;5013923;28;20192;-74
2021/01/19 14:16:47;;;;;;;1.30;1.20;;;8.40;99.90;;;;;;5014118;28;20193;-75
2021/01/19 14:19:13;;;;;;;0.70;0.70;;;8.40;99.90;;;;;;5015898;28;20206;-72
2021/01/19 14:21:39;;;;;;;1.70;0.88;;;8.40;99.90;;;;;;5013561;28;20190;-73
2021/01/19 14:24:05;;;;;;;1.63;0.83;;;8.40;99.90;;;;;;5013012;28;20188;-73